Time;durP1;ratioP1;P1;durP2;ratioP2;P2;SDS_P1;SDS_P2;PMS_P1;PMS_P2;Temp;Humidity;BMP_temperature;BMP_pressure;BME280_temperature;BME280_humidity;BME280_pressure;Samples;Min_cycle;Max_cycle;Signal;HPM_P1;HPM_P2
2022/05/23 00:00:18;;;;;;;3.45;2.15;;;;;;;24.73;32.26;100426.50;5081393;28;20076;-75
2022/05/23 00:02:46;;;;;;;4.18;2.08;;;;;;;24.75;32.07;100418.81;5090035;28;20048;-77
2022/05/23 00:05:13;;;;;;;5.50;2.15;;;;;;;24.74;32.40;100417.97;5091270;28;20075;-76
2022/05/23 00:07:42;;;;;;;3.53;2.22;;;;;;;24.76;32.23;100410.28;5084539;28;20444;-76
2022/05/23 00:10:11;;;;;;;3.10;2.15;;;;;;;24.77;32.22;100408.38;5106423;28;20067;-77
2022/05/23 00:12:39;;;;;;;3.35;1.98;;;;;;;24.76;32.41;100420.53;5082968;28;20048;-75
2022/05/23 00:15:09;;;;;;;3.47;1.73;;;;;;;24.78;32.35;100421.22;5070404;28;20057;-75
2022/05/23 00:17:36;;;;;;;3.17;2.17;;;;;;;24.76;32.58;100424.19;5089062;28;20052;-76
2022/05/23 00:20:09;;;;;;;3.58;1.77;;;;;;;24.79;31.86;100414.59;5089091;28;20521;-76
2022/05/23 00:22:37;;;;;;;3.20;2.00;;;;;;;24.75;31.92;100419.69;5082401;28;20052;-76
2022/05/23 00:25:07;;;;;;;5.10;2.35;;;;;;;24.78;31.99;100407.31;5090220;28;20044;-76
2022/05/23 00:27:37;;;;;;;3.03;1.90;;;;;;;24.75;32.12;100400.25;5085234;28;20076;-75
2022/05/23 00:30:11;;;;;;;3.55;1.90;;;;;;;24.77;31.88;100392.56;5087527;28;20482;-76
2022/05/23 00:35:23;;;;;;;4.10;2.05;;;;;;;24.70;31.98;100385.28;5088819;28;20062;-76
2022/05/23 00:37:54;;;;;;;4.63;2.15;;;;;;;24.72;31.95;100394.25;5085994;28;20085;-76
2022/05/23 00:40:50;;;;;;;2.90;1.77;;;;;;;24.65;31.98;100383.09;5088825;28;20060;-75
2022/05/23 00:43:20;;;;;;;3.35;1.90;;;;;;;24.65;31.64;100377.56;5083799;28;20048;-76
2022/05/23 00:45:54;;;;;;;3.70;1.80;;;;;;;24.65;31.81;100374.78;5087874;28;20052;-76
2022/05/23 00:48:25;;;;;;;3.13;1.70;;;;;;;24.61;31.67;100370.72;5092719;28;20127;-76
2022/05/23 00:50:58;;;;;;;4.65;2.00;;;;;;;24.59;31.67;100375.59;5089451;28;20072;-76
2022/05/23 00:53:38;;;;;;;3.08;2.13;;;;;;;24.57;31.56;100364.69;5083369;28;20051;-76
2022/05/23 00:56:07;;;;;;;3.90;1.90;;;;;;;24.52;31.89;100361.69;5087971;28;20049;-76
2022/05/23 00:58:50;;;;;;;4.82;1.80;;;;;;;24.52;31.64;100356.16;5095897;28;20046;-76
2022/05/23 01:01:22;;;;;;;2.97;2.00;;;;;;;24.48;31.99;100360.38;5084928;28;20132;-74
2022/05/23 01:03:50;;;;;;;4.18;1.73;;;;;;;24.47;31.54;100360.56;5086546;28;20607;-76
2022/05/23 01:06:17;;;;;;;3.70;1.80;;;;;;;24.45;31.41;100369.13;5092519;28;20044;-75
2022/05/23 01:08:45;;;;;;;2.90;1.60;;;;;;;24.47;32.10;100366.97;5083759;28;20167;-75
2022/05/23 01:11:13;;;;;;;4.18;2.08;;;;;;;24.44;32.12;100359.09;5082642;28;20040;-75
2022/05/23 01:13:39;;;;;;;3.03;1.73;;;;;;;24.45;32.18;100368.28;5073988;28;20052;-76
2022/05/23 01:16:06;;;;;;;3.70;2.05;;;;;;;24.44;31.87;100359.09;5093014;28;20040;-76
2022/05/23 01:18:33;;;;;;;3.33;1.80;;;;;;;24.44;31.74;100361.88;5087495;28;20052;-74
2022/05/23 01:21:02;;;;;;;2.97;1.80;;;;;;;24.46;32.11;100365.25;5096552;28;20085;-74
2022/05/23 01:23:47;;;;;;;3.47;1.58;;;;;;;24.48;31.44;100365.94;5091973;28;20068;-74
2022/05/23 01:26:14;;;;;;;3.35;1.88;;;;;;;24.45;31.82;100365.50;5087524;28;20696;-74
2022/05/23 01:28:42;;;;;;;3.38;1.80;;;;;;;24.48;32.08;100363.16;5090662;28;20128;-73
2022/05/23 01:31:11;;;;;;;3.63;1.80;;;;;;;24.49;31.78;100362.09;5073791;28;20127;-74
2022/05/23 01:33:39;;;;;;;3.03;1.70;;;;;;;24.48;31.84;100365.94;5092925;28;20162;-74
2022/05/23 01:36:11;;;;;;;3.25;1.95;;;;;;;24.53;31.86;100357.88;5095627;28;20123;-74
2022/05/23 01:38:42;;;;;;;2.85;1.70;;;;;;;24.52;31.51;100352.50;5091653;28;20552;-74
2022/05/23 01:41:09;;;;;;;4.13;2.00;;;;;;;24.50;31.54;100349.94;5093511;28;20521;-74
2022/05/23 01:43:36;;;;;;;2.50;1.70;;;;;;;24.51;31.92;100351.66;5051326;28;20076;-74
2022/05/23 01:46:02;;;;;;;2.92;1.60;;;;;;;24.52;31.78;100345.03;5087493;28;20072;-74
2022/05/23 01:48:29;;;;;;;3.60;1.90;;;;;;;24.52;31.88;100342.25;5089175;28;20056;-74
2022/05/23 01:50:55;;;;;;;3.25;1.77;;;;;;;24.53;31.73;100343.97;5092245;28;20082;-74
2022/05/23 01:53:22;;;;;;;2.60;1.67;;;;;;;24.54;32.01;100339.28;5089436;28;20068;-74
2022/05/23 01:55:49;;;;;;;4.05;1.80;;;;;;;24.53;32.04;100332.03;5090205;28;20494;-74
2022/05/23 02:01:12;;;;;;;3.60;2.00;;;;;;;24.55;31.49;100327.09;5092814;28;20106;-74
2022/05/23 02:01:14;;;;;;;3.28;1.70;;;;;;;24.54;31.64;100317.09;5086154;28;20097;-74
2022/05/23 02:03:46;;;;;;;3.92;1.83;;;;;;;24.56;31.54;100307.47;5087815;28;20063;-74
2022/05/23 02:06:13;;;;;;;3.93;1.87;;;;;;;24.51;31.80;100311.94;5084867;28;20036;-74
2022/05/23 02:08:39;;;;;;;2.65;1.65;;;;;;;24.50;31.49;100308.31;5096111;28;20080;-74
2022/05/23 02:11:07;;;;;;;3.88;1.90;;;;;;;24.50;31.20;100297.19;5100089;28;20086;-74
2022/05/23 02:13:36;;;;;;;2.67;1.80;;;;;;;24.50;31.21;100297.19;5090241;28;20040;-74
2022/05/23 02:16:04;;;;;;;3.03;1.90;;;;;;;24.46;31.27;100287.56;5089846;28;20127;-77
2022/05/23 02:18:31;;;;;;;2.83;1.77;;;;;;;24.45;31.16;100285.88;5073051;28;20071;-74
2022/05/23 02:20:58;;;;;;;3.00;1.85;;;;;;;24.43;31.35;100284.34;5089629;28;20067;-74
2022/05/23 02:23:25;;;;;;;3.70;2.10;;;;;;;24.40;31.34;100282.84;5084882;28;20576;-74
2022/05/23 02:25:52;;;;;;;3.90;2.10;;;;;;;24.39;31.42;100288.59;5089052;28;20052;-74
2022/05/23 02:28:19;;;;;;;3.40;1.70;;;;;;;24.36;31.32;100289.88;5091282;28;20115;-74
2022/05/23 02:30:47;;;;;;;3.97;2.00;;;;;;;24.36;31.50;100277.94;5088585;28;20044;-74
2022/05/23 02:33:15;;;;;;;3.58;1.90;;;;;;;24.33;31.25;100281.09;5089035;28;20072;-74
2022/05/23 02:35:42;;;;;;;3.50;2.03;;;;;;;24.31;31.27;100272.13;5091156;28;20083;-77
2022/05/23 02:38:09;;;;;;;2.88;1.63;;;;;;;24.31;31.15;100266.56;5086690;28;20123;-74
2022/05/23 02:40:36;;;;;;;2.80;1.77;;;;;;;24.29;31.44;100257.63;5088462;28;20071;-74
2022/05/23 02:43:03;;;;;;;3.47;2.33;;;;;;;24.29;31.40;100258.47;5090459;28;20062;-74
2022/05/23 02:45:30;;;;;;;2.50;1.77;;;;;;;24.27;31.47;100250.34;5093496;28;20069;-74
2022/05/23 02:47:56;;;;;;;3.63;2.03;;;;;;;24.26;31.40;100245.88;5091503;28;20507;-74
2022/05/23 02:50:23;;;;;;;3.28;1.88;;;;;;;24.26;31.75;100250.56;5089637;28;20044;-76
2022/05/23 02:52:50;;;;;;;3.20;1.83;;;;;;;24.27;31.22;100243.94;5080879;28;20139;-76
2022/05/23 02:55:17;;;;;;;2.72;2.00;;;;;;;24.27;31.23;100235.63;5072852;28;20054;-76
2022/05/23 02:57:43;;;;;;;4.32;1.90;;;;;;;24.26;31.56;100239.44;5087658;28;20083;-76
2022/05/23 03:00:10;;;;;;;3.22;1.77;;;;;;;24.26;31.68;100239.44;5088538;28;20097;-76
2022/05/23 03:05:22;;;;;;;3.40;1.85;;;;;;;24.26;31.23;100220.88;5085806;28;20139;-76
2022/05/23 03:07:49;;;;;;;3.70;1.92;;;;;;;24.27;31.69;100213.44;5081285;28;20131;-76
2022/05/23 03:10:15;;;;;;;3.80;1.95;;;;;;;24.26;31.75;100212.56;5090919;28;20134;-76
2022/05/23 03:12:42;;;;;;;3.03;1.98;;;;;;;24.26;31.79;100208.94;5082673;28;20594;-76
2022/05/23 03:15:10;;;;;;;3.63;2.00;;;;;;;24.27;31.57;100202.34;5095381;28;20048;-76
2022/05/23 03:17:37;;;;;;;4.32;1.90;;;;;;;24.26;31.47;100195.06;5091631;28;20093;-76
2022/05/23 03:20:04;;;;;;;4.20;1.92;;;;;;;24.26;31.41;100195.94;5096291;28;20047;-76
2022/05/23 03:28:02;;;;;;;3.35;2.00;;;;;;;24.23;31.65;100167.72;5083704;28;20138;-76
2022/05/23 03:30:30;;;;;;;3.50;1.73;;;;;;;24.24;31.24;100161.97;5080167;28;20081;-76
2022/05/23 03:32:59;;;;;;;3.40;2.00;;;;;;;24.22;31.43;100146.59;5063017;28;20058;-76
2022/05/23 03:35:29;;;;;;;4.07;2.00;;;;;;;24.22;31.31;100154.91;5081537;28;20138;-76
2022/05/23 03:37:56;;;;;;;3.08;2.05;;;;;;;24.20;31.60;100146.81;5073510;28;20044;-76
2022/05/23 03:40:23;;;;;;;3.63;1.85;;;;;;;24.18;31.55;100148.06;5090865;28;20387;-76
2022/05/23 03:42:50;;;;;;;3.90;2.15;;;;;;;24.16;30.99;100145.47;5095292;28;20135;-76
2022/05/23 03:45:17;;;;;;;3.72;1.83;;;;;;;24.16;31.67;100144.63;5072973;28;20105;-76
2022/05/23 03:47:44;;;;;;;3.97;2.00;;;;;;;24.15;31.63;100140.13;5089760;28;20063;-76
2022/05/23 03:50:10;;;;;;;4.47;1.77;;;;;;;24.14;31.93;100138.41;5080075;28;20150;-76
2022/05/23 03:52:37;;;;;;;4.03;2.20;;;;;;;24.14;31.52;100138.41;5097236;28;20048;-76
2022/05/23 03:55:05;;;;;;;5.05;2.05;;;;;;;24.13;31.58;100137.56;5102754;28;20056;-76
2022/05/23 03:57:31;;;;;;;3.58;1.85;;;;;;;24.14;31.46;100143.97;5100824;28;20048;-76
2022/05/23 03:59:59;;;;;;;3.35;1.80;;;;;;;24.14;31.94;100143.97;5100377;28;20082;-76
2022/05/23 04:02:25;;;;;;;5.72;2.22;;;;;;;24.15;32.03;100140.13;5090548;28;20056;-76
2022/05/23 04:04:52;;;;;;;2.83;1.90;;;;;;;24.15;32.08;100131.81;5101361;28;20083;-76
2022/05/23 04:07:18;;;;;;;3.70;1.90;;;;;;;24.16;31.77;100127.97;5092498;28;20470;-76
2022/05/23 04:09:45;;;;;;;4.22;2.00;;;;;;;24.17;31.80;100118.59;5086417;28;20144;-76
2022/05/23 04:12:11;;;;;;;3.60;2.10;;;;;;;24.16;31.62;100114.97;5090059;28;20119;-76
2022/05/23 04:14:38;;;;;;;2.90;1.83;;;;;;;24.17;31.82;100108.38;5090991;28;20123;-76
2022/05/23 04:17:07;;;;;;;3.50;1.77;;;;;;;24.20;31.70;100112.66;5089898;28;20071;-76
2022/05/23 04:19:34;;;;;;;4.20;1.98;;;;;;;24.17;32.01;100108.38;5087489;28;20040;-76
2022/05/23 04:22:01;;;;;;;3.47;1.75;;;;;;;24.18;32.08;100112.00;5085444;28;20066;-76
2022/05/23 04:24:28;;;;;;;2.55;1.75;;;;;;;24.17;31.70;100108.38;5085631;28;20044;-76
2022/05/23 04:26:56;;;;;;;3.25;1.77;;;;;;;24.18;31.88;100103.69;5088415;28;20079;-76
2022/05/23 04:29:23;;;;;;;3.10;1.85;;;;;;;24.18;31.54;100101.75;5088841;28;20044;-76
2022/05/23 04:31:50;;;;;;;2.60;1.63;;;;;;;24.17;31.53;100097.28;5090868;28;20036;-75
2022/05/23 04:37:02;;;;;;;3.97;1.83;;;;;;;24.16;31.92;100087.22;5087627;28;20078;-76
2022/05/23 04:39:28;;;;;;;2.95;1.83;;;;;;;24.17;31.77;100088.94;5087675;28;20478;-76
2022/05/23 04:41:55;;;;;;;2.72;1.63;;;;;;;24.17;31.71;100082.53;5088305;28;20090;-76
2022/05/23 04:44:22;;;;;;;3.60;2.25;;;;;;;24.18;31.79;100074.03;5073610;28;20044;-76
2022/05/23 04:49:45;;;;;;;3.10;1.90;;;;;;;24.17;31.66;100065.91;5086551;28;20702;-75
2022/05/23 04:52:13;;;;;;;4.55;2.03;;;;;;;24.19;31.77;100067.41;5083599;28;20047;-75
2022/05/23 04:54:41;;;;;;;2.55;1.60;;;;;;;24.20;32.23;100069.16;5089754;28;20079;-76
2022/05/23 04:57:11;;;;;;;3.75;1.80;;;;;;;24.22;31.67;100060.59;5091641;28;20044;-76
2022/05/23 04:59:38;;;;;;;2.53;1.70;;;;;;;24.21;31.71;100070.00;5094957;28;20078;-75
2022/05/23 05:02:05;;;;;;;3.95;1.90;;;;;;;24.22;32.08;100069.78;5096380;28;20073;-75
2022/05/23 05:04:33;;;;;;;3.78;1.70;;;;;;;24.22;32.15;100060.59;5093422;28;20075;-75
2022/05/23 05:06:59;;;;;;;2.85;1.88;;;;;;;24.22;32.38;100052.28;5093113;28;20083;-76
2022/05/23 05:09:27;;;;;;;3.45;1.85;;;;;;;24.22;31.93;100053.13;5092082;28;20117;-76
2022/05/23 05:11:54;;;;;;;4.22;1.90;;;;;;;24.24;31.88;100045.47;5090615;28;20107;-76
2022/05/23 05:14:20;;;;;;;3.50;1.80;;;;;;;24.25;31.42;100049.09;5089482;28;20115;-76
2022/05/23 05:16:47;;;;;;;5.88;2.10;;;;;;;24.25;32.03;100035.22;5092542;28;20091;-75
2022/05/23 05:19:14;;;;;;;4.00;2.10;;;;;;;24.25;31.82;100036.06;5090794;28;20044;-76
2022/05/23 05:21:40;;;;;;;3.47;1.95;;;;;;;24.25;31.69;100030.53;5086394;28;20648;-76
2022/05/23 05:24:13;;;;;;;2.90;1.67;;;;;;;24.26;31.97;100031.38;5091345;28;20039;-76
2022/05/23 05:26:40;;;;;;;3.90;1.80;;;;;;;24.27;31.85;100028.41;5073282;28;20133;-76
2022/05/23 05:29:06;;;;;;;3.78;1.73;;;;;;;24.27;32.17;100028.41;5091927;28;20131;-75
2022/05/23 05:31:59;;;;;;;2.85;1.67;;;;;;;24.28;31.83;100026.50;5089926;28;20047;-76
2022/05/23 05:34:32;;;;;;;2.53;1.75;;;;;;;24.29;31.99;100019.88;5077896;28;20071;-75
2022/05/23 05:37:04;;;;;;;3.53;2.00;;;;;;;24.32;31.83;100018.56;5086839;28;20139;-75
2022/05/23 05:39:34;;;;;;;3.47;1.55;;;;;;;24.30;31.70;100013.22;5074014;28;20077;-75
2022/05/23 05:42:18;;;;;;;3.92;1.80;;;;;;;24.34;31.81;100017.31;5087229;28;20130;-75
2022/05/23 05:44:49;;;;;;;2.92;1.83;;;;;;;24.32;32.02;100013.88;5075168;28;20091;-75
2022/05/23 05:47:19;;;;;;;3.05;1.70;;;;;;;24.31;32.05;100006.63;5079749;28;20036;-74
2022/05/23 05:49:56;;;;;;;2.72;1.77;;;;;;;24.32;32.11;100008.34;5083319;28;20475;-74
2022/05/23 05:52:26;;;;;;;3.30;1.80;;;;;;;24.33;32.14;100004.50;5084050;28;20040;-74
2022/05/23 05:54:54;;;;;;;3.20;2.08;;;;;;;24.34;32.03;99997.03;5090990;28;20118;-74
2022/05/23 05:57:23;;;;;;;4.15;1.70;;;;;;;24.35;32.10;99982.09;5086402;28;20067;-74
2022/05/23 05:59:50;;;;;;;3.25;1.67;;;;;;;24.34;31.89;99983.16;5088163;28;20147;-74
2022/05/23 06:02:17;;;;;;;4.03;2.00;;;;;;;24.34;31.68;99985.94;5088914;28;20080;-74
2022/05/23 06:04:44;;;;;;;3.80;2.00;;;;;;;24.34;32.39;99992.34;5091379;28;20056;-74
2022/05/23 06:13:04;;;;;;;5.63;1.80;;;;;;;24.31;32.02;99989.97;5051978;28;20652;-73
2022/05/23 06:15:31;;;;;;;3.40;2.00;;;;;;;24.32;32.22;99982.50;5096584;28;20056;-73
2022/05/23 06:17:57;;;;;;;5.97;2.03;;;;;;;24.33;32.56;99998.09;5091223;28;20109;-73
2022/05/23 06:20:24;;;;;;;3.85;2.10;;;;;;;24.34;32.33;99997.03;5087311;28;20112;-73
2022/05/23 06:22:51;;;;;;;4.97;1.98;;;;;;;24.37;32.37;99988.28;5071772;28;20056;-73
2022/05/23 06:25:19;;;;;;;2.83;1.77;;;;;;;24.38;32.43;99985.28;5098065;28;20072;-73
2022/05/23 06:27:45;;;;;;;3.28;1.80;;;;;;;24.39;32.14;99986.13;5091708;28;20077;-71
2022/05/23 06:30:14;;;;;;;3.75;1.88;;;;;;;24.41;32.55;99978.47;5089800;28;20048;-71
2022/05/23 06:32:41;;;;;;;3.30;1.90;;;;;;;24.41;32.44;99981.25;5071728;28;20437;-71
2022/05/23 06:35:09;;;;;;;3.47;1.88;;;;;;;24.43;32.19;99979.09;5085353;28;20052;-71
2022/05/23 06:37:38;;;;;;;3.90;1.80;;;;;;;24.45;32.50;99975.06;5091474;28;20091;-74
2022/05/23 06:40:08;;;;;;;3.38;1.73;;;;;;;24.47;32.56;99963.72;5089683;28;20130;-71
2022/05/23 06:42:35;;;;;;;4.05;1.80;;;;;;;24.47;32.20;99961.81;5093906;28;20175;-71
2022/05/23 06:45:03;;;;;;;3.72;1.60;;;;;;;24.50;32.03;99960.53;5091907;28;20043;-71
2022/05/23 06:47:30;;;;;;;4.40;1.83;;;;;;;24.50;32.32;99958.63;5092674;28;20051;-71
2022/05/23 06:49:57;;;;;;;3.72;1.92;;;;;;;24.53;32.47;99952.66;5091534;28;20087;-71
2022/05/23 06:52:24;;;;;;;2.83;1.63;;;;;;;24.56;32.08;99949.41;5092366;28;20180;-73
2022/05/23 06:54:50;;;;;;;3.65;1.80;;;;;;;24.58;32.31;99954.75;5092797;28;20048;-71
2022/05/23 06:57:17;;;;;;;3.33;1.90;;;;;;;24.59;32.08;99951.78;5070292;28;20039;-70
2022/05/23 06:59:44;;;;;;;3.00;2.03;;;;;;;24.63;32.17;99960.50;5087222;28;20056;-71
2022/05/23 07:02:11;;;;;;;4.53;2.25;;;;;;;24.64;32.00;99957.53;5083494;28;20079;-71
2022/05/23 07:12:56;;;;;;;3.63;1.60;;;;;;;24.78;31.87;99943.63;5059526;28;20139;-73
2022/05/23 07:15:23;;;;;;;2.83;1.88;;;;;;;24.81;32.15;99945.97;5083542;28;20171;-72
2022/05/23 07:17:52;;;;;;;3.50;1.90;;;;;;;24.84;31.84;99935.28;5076196;28;20037;-72
2022/05/23 07:20:19;;;;;;;3.08;1.85;;;;;;;24.89;31.65;99934.63;5085004;28;20055;-72
2022/05/23 07:22:46;;;;;;;2.72;1.70;;;;;;;24.92;31.60;99937.84;5074376;28;20106;-73
2022/05/23 07:25:13;;;;;;;3.05;1.77;;;;;;;24.95;32.08;99934.63;5081454;28;20127;-77
2022/05/23 07:27:40;;;;;;;3.15;1.92;;;;;;;24.98;31.87;99930.56;5084721;28;20048;-75
2022/05/23 07:30:07;;;;;;;3.88;1.85;;;;;;;25.00;31.38;99918.19;5083524;28;20076;-75
2022/05/23 07:32:34;;;;;;;3.53;2.00;;;;;;;25.02;31.90;99920.75;5084513;28;20426;-74
2022/05/23 07:35:00;;;;;;;3.47;1.80;;;;;;;25.05;31.66;99920.28;5085934;28;20486;-74
2022/05/23 07:37:28;;;;;;;3.80;2.10;;;;;;;25.06;31.34;99919.22;5095469;28;20092;-74
2022/05/23 07:39:56;;;;;;;3.53;2.00;;;;;;;25.08;31.51;99919.00;5091207;28;20114;-74
2022/05/23 07:42:23;;;;;;;3.05;1.98;;;;;;;25.09;31.88;99918.78;5080609;28;20131;-75
2022/05/23 07:44:50;;;;;;;2.97;1.80;;;;;;;25.11;31.73;99922.22;5104802;28;20134;-74
2022/05/23 07:47:16;;;;;;;3.80;2.22;;;;;;;25.13;31.86;99919.19;5109462;28;20051;-74
2022/05/23 07:49:47;;;;;;;3.60;2.00;;;;;;;25.16;31.48;99908.50;5096121;28;20521;-74
2022/05/23 07:52:14;;;;;;;4.03;1.80;;;;;;;25.21;31.72;99916.16;5107962;28;20135;-75
2022/05/23 08:02:53;;;;;;;3.45;2.20;;;;;;;25.30;31.58;99893.47;5101223;28;20048;-75
2022/05/23 08:05:20;;;;;;;3.90;2.10;;;;;;;25.37;31.15;99899.84;5091544;28;20551;-74
2022/05/23 08:07:46;;;;;;;3.67;1.83;;;;;;;25.40;31.29;99906.91;5102771;28;20511;-75
2022/05/23 08:10:13;;;;;;;4.50;1.92;;;;;;;25.43;31.34;99897.28;5097731;28;20127;-75
2022/05/23 08:12:45;;;;;;;3.20;2.13;;;;;;;25.49;31.58;99896.38;5105038;28;20066;-75
2022/05/23 08:15:15;;;;;;;4.40;1.88;;;;;;;25.49;31.59;99879.69;5094229;28;20048;-74
2022/05/23 08:17:42;;;;;;;3.10;1.80;;;;;;;25.55;31.66;99876.00;5107416;28;20055;-74
2022/05/23 08:20:10;;;;;;;4.68;1.95;;;;;;;25.61;31.91;99881.56;5090421;28;20486;-74
2022/05/23 08:22:37;;;;;;;3.38;1.92;;;;;;;25.69;31.60;99878.53;5090680;28;20051;-74
2022/05/23 08:25:04;;;;;;;3.25;1.80;;;;;;;25.80;32.08;99873.31;5098501;28;20126;-74
2022/05/23 08:27:31;;;;;;;3.15;2.10;;;;;;;25.91;31.49;99869.81;5108633;28;20130;-74
2022/05/23 08:29:57;;;;;;;3.35;1.90;;;;;;;26.02;31.90;99867.16;5109948;28;20452;-74
2022/05/23 08:32:24;;;;;;;3.03;1.90;;;;;;;26.14;31.80;99865.34;5084820;28;20474;-74
2022/05/23 08:34:52;;;;;;;4.30;2.20;;;;;;;26.26;31.55;99871.06;5100376;28;20052;-75
2022/05/23 08:37:19;;;;;;;3.50;1.88;;;;;;;26.38;31.46;99868.34;5095923;28;20098;-75
2022/05/23 08:39:47;;;;;;;3.58;2.03;;;;;;;26.46;31.05;99871.69;5078127;28;20089;-74
2022/05/23 08:42:45;;;;;;;4.15;2.38;;;;;;;26.57;30.38;99872.88;5111745;28;20083;-74
2022/05/23 08:45:22;;;;;;;2.58;1.70;;;;;;;26.65;30.64;99861.44;5085766;28;20052;-74
2022/05/23 08:48:03;;;;;;;4.03;2.00;;;;;;;26.72;30.28;99853.00;5113258;28;20120;-74
2022/05/23 08:51:01;;;;;;;3.28;2.10;;;;;;;26.69;30.44;99859.88;5101658;28;20406;-74
2022/05/23 08:53:56;;;;;;;3.80;1.90;;;;;;;26.77;30.24;99861.50;5110969;28;20040;-74
2022/05/23 08:56:40;;;;;;;3.75;2.10;;;;;;;26.84;30.52;99857.59;5083459;28;20040;-74
2022/05/23 08:59:21;;;;;;;3.50;2.10;;;;;;;26.89;30.40;99856.88;5080479;28;20051;-74
2022/05/23 09:01:53;;;;;;;2.78;1.83;;;;;;;26.94;30.60;99853.41;5093250;28;20151;-74
2022/05/23 09:04:38;;;;;;;4.28;2.15;;;;;;;26.97;30.39;99839.03;5106716;28;20052;-74
2022/05/23 09:07:07;;;;;;;5.05;2.10;;;;;;;27.03;30.80;99838.94;5087779;28;20040;-75
2022/05/23 09:09:36;;;;;;;4.25;1.90;;;;;;;27.13;30.57;99844.81;5097826;28;20509;-74
2022/05/23 09:12:14;;;;;;;3.03;1.83;;;;;;;27.22;30.36;99854.53;5102119;28;20040;-74
2022/05/23 09:14:41;;;;;;;3.47;1.95;;;;;;;27.28;30.38;99838.81;5094209;28;20138;-75
2022/05/23 09:17:20;;;;;;;3.33;1.92;;;;;;;27.41;30.31;99846.16;5112643;28;20051;-75
2022/05/23 09:20:03;;;;;;;2.88;1.88;;;;;;;27.50;30.26;99850.31;5105956;28;20083;-74
2022/05/23 09:22:35;;;;;;;3.28;1.75;;;;;;;27.55;30.18;99848.53;5088792;28;20453;-75
2022/05/23 09:25:05;;;;;;;3.60;1.97;;;;;;;27.66;30.15;99841.28;5103905;28;20093;-75
2022/05/23 09:27:37;;;;;;;4.40;1.88;;;;;;;27.76;29.97;99821.16;5108966;28;20386;-75
2022/05/23 09:30:08;;;;;;;3.47;1.90;;;;;;;27.82;29.93;99804.34;5104201;28;20086;-75
2022/05/23 09:32:46;;;;;;;3.13;1.90;;;;;;;27.94;29.55;99805.19;5109504;28;20532;-75
2022/05/23 09:35:17;;;;;;;3.47;1.80;;;;;;;27.97;29.55;99801.06;5098502;28;20135;-75
2022/05/23 09:38:04;;;;;;;3.80;1.73;;;;;;;28.08;29.69;99791.03;5088654;28;20511;-74
2022/05/23 09:40:33;;;;;;;3.45;1.90;;;;;;;28.13;29.24;99786.41;5107011;28;20100;-74
2022/05/23 09:49:09;;;;;;;3.28;1.48;;;;;;;28.31;29.80;99757.53;5086937;28;19920;-75
2022/05/23 09:52:08;;;;;;;3.08;1.73;;;;;;;28.37;28.91;99757.41;5107805;28;20079;-75
2022/05/23 09:54:46;;;;;;;5.07;1.73;;;;;;;28.49;29.29;99743.44;5111075;28;20047;-75
2022/05/23 09:57:28;;;;;;;3.17;1.73;;;;;;;28.57;29.25;99734.69;5087178;28;20083;-75
2022/05/23 10:00:03;;;;;;;3.30;2.00;;;;;;;28.62;29.04;99734.75;5093462;28;20102;-75
2022/05/23 10:02:29;;;;;;;4.63;1.85;;;;;;;28.64;29.29;99724.19;5091161;28;20067;-75
2022/05/23 10:04:56;;;;;;;2.63;1.73;;;;;;;28.67;29.16;99723.69;5106921;28;20124;-75
2022/05/23 10:07:31;;;;;;;3.58;1.70;;;;;;;28.73;28.85;99707.91;5100120;28;20100;-75
2022/05/23 10:10:01;;;;;;;2.45;1.50;;;;;;;28.72;28.93;99707.06;5099235;28;20083;-75
2022/05/23 10:12:29;;;;;;;4.18;1.85;;;;;;;28.72;28.89;99698.66;5103656;28;20551;-74
2022/05/23 10:15:28;;;;;;;3.50;1.50;;;;;;;28.73;28.81;99719.06;5083688;28;20109;-75
2022/05/23 10:18:06;;;;;;;2.97;1.83;;;;;;;28.71;28.73;99722.13;5083066;28;20044;-75
2022/05/23 10:20:41;;;;;;;3.30;1.98;;;;;;;28.70;29.04;99727.94;5089327;28;20079;-75
2022/05/23 10:23:22;;;;;;;3.88;1.60;;;;;;;28.68;28.85;99725.38;5084290;28;20126;-75
2022/05/23 10:26:13;;;;;;;2.72;1.52;;;;;;;28.64;29.09;99729.78;5103660;28;20202;-75
2022/05/23 10:29:06;;;;;;;3.72;1.80;;;;;;;28.66;28.94;99735.13;5097612;28;20043;-75
2022/05/23 10:31:52;;;;;;;2.40;1.60;;;;;;;28.62;29.12;99718.00;5077658;28;20454;-75
2022/05/23 10:34:37;;;;;;;2.55;1.52;;;;;;;28.67;28.82;99711.66;5089521;28;20556;-75
2022/05/23 10:37:08;;;;;;;2.83;1.70;;;;;;;28.67;29.23;99709.72;5079824;28;20083;-75
2022/05/23 10:42:53;;;;;;;2.97;1.60;;;;;;;28.65;28.83;99702.72;5097850;28;20397;-76
2022/05/23 10:45:36;;;;;;;3.47;2.00;;;;;;;28.70;29.31;99700.84;5096675;28;20055;-75
2022/05/23 10:48:24;;;;;;;3.00;1.70;;;;;;;28.74;29.54;99688.06;5080193;28;20051;-76
2022/05/23 10:51:04;;;;;;;4.25;2.20;;;;;;;28.78;29.17;99680.09;5082978;28;20045;-75
2022/05/23 10:54:02;;;;;;;4.68;1.80;;;;;;;28.80;28.98;99668.66;5088151;28;20044;-75
2022/05/23 10:56:53;;;;;;;4.13;2.03;;;;;;;28.86;29.16;99662.06;5078902;28;20101;-75
2022/05/23 10:59:31;;;;;;;3.67;1.80;;;;;;;28.88;29.21;99657.94;5089677;28;20072;-76
2022/05/23 11:02:06;;;;;;;2.75;1.60;;;;;;;28.92;28.80;99649.88;5085543;28;20043;-76
2022/05/23 11:05:05;;;;;;;3.58;1.90;;;;;;;28.91;29.26;99637.03;5087970;28;20064;-77
2022/05/23 11:07:57;;;;;;;3.20;1.80;;;;;;;28.92;29.29;99633.97;5066280;28;20036;-76
2022/05/23 11:10:41;;;;;;;3.35;1.80;;;;;;;28.97;29.25;99633.22;5083653;28;20047;-77
2022/05/23 11:13:29;;;;;;;4.20;1.67;;;;;;;29.02;29.22;99636.09;5084284;28;20537;-77
2022/05/23 11:16:24;;;;;;;3.35;1.77;;;;;;;29.02;29.17;99636.94;5088220;28;20048;-74
2022/05/23 11:19:17;;;;;;;4.32;1.90;;;;;;;29.08;28.97;99629.50;5075689;28;20405;-78
2022/05/23 11:22:01;;;;;;;4.25;1.88;;;;;;;29.08;28.97;99610.78;5072807;28;20052;-77
2022/05/23 11:24:39;;;;;;;3.30;1.88;;;;;;;29.13;28.75;99608.09;5075261;28;20040;-77
2022/05/23 11:35:42;;;;;;;3.50;2.00;;;;;;;29.15;29.38;99586.28;5095332;28;20055;-75
2022/05/23 11:38:11;;;;;;;3.70;1.80;;;;;;;29.20;29.30;99588.34;5089225;28;20494;-74
2022/05/23 11:41:06;;;;;;;3.30;2.00;;;;;;;29.23;29.43;99581.41;5093685;28;20052;-75
2022/05/23 11:43:33;;;;;;;3.25;1.80;;;;;;;29.23;29.71;99567.44;5093996;28;20086;-75
2022/05/23 11:46:02;;;;;;;3.38;1.88;;;;;;;29.28;29.60;99561.91;5063510;28;20123;-75
2022/05/23 11:48:46;;;;;;;3.67;1.85;;;;;;;29.35;29.62;99560.66;5075745;28;20081;-76
2022/05/23 11:51:12;;;;;;;2.67;1.85;;;;;;;29.38;29.67;99564.91;5070838;28;20479;-75
2022/05/23 11:53:57;;;;;;;3.10;1.90;;;;;;;29.46;29.61;99556.91;5085315;28;20036;-75
2022/05/23 11:56:45;;;;;;;2.65;1.90;;;;;;;29.48;29.38;99560.28;5085364;28;20106;-75
2022/05/23 11:59:24;;;;;;;3.20;1.92;;;;;;;29.49;29.02;99561.97;5092439;28;20074;-75
2022/05/23 12:02:12;;;;;;;3.10;1.85;;;;;;;29.48;29.50;99559.47;5087144;28;20052;-75
2022/05/23 12:04:48;;;;;;;2.83;1.60;;;;;;;29.51;29.45;99556.13;5086881;28;20058;-75
2022/05/23 12:07:41;;;;;;;3.80;1.95;;;;;;;29.47;29.49;99550.22;5087589;28;20083;-75
2022/05/23 12:10:26;;;;;;;4.80;2.00;;;;;;;29.48;29.43;99540.69;5102059;28;20078;-75
2022/05/23 12:12:53;;;;;;;4.50;1.83;;;;;;;29.47;29.64;99529.78;5081474;28;20040;-75
2022/05/23 12:15:46;;;;;;;3.13;2.00;;;;;;;29.45;29.77;99516.06;5086109;28;20052;-75
2022/05/23 12:18:13;;;;;;;3.78;2.08;;;;;;;29.43;29.81;99521.06;5082930;28;20048;-75
2022/05/23 12:20:48;;;;;;;5.03;2.20;;;;;;;29.49;29.82;99505.19;5085401;28;20062;-75
2022/05/23 12:23:34;;;;;;;3.58;2.20;;;;;;;29.47;29.60;99511.06;5089598;28;20124;-74
2022/05/23 12:26:21;;;;;;;2.97;1.83;;;;;;;29.45;29.60;99516.06;5084411;28;20090;-74
2022/05/23 12:28:58;;;;;;;3.88;1.95;;;;;;;29.50;29.92;99523.66;5091793;28;20091;-75
2022/05/23 12:31:30;;;;;;;3.10;2.28;;;;;;;29.53;29.96;99511.97;5082975;28;20093;-75
2022/05/23 12:34:01;;;;;;;4.78;2.25;;;;;;;29.57;29.96;99515.13;5093771;28;20047;-75
2022/05/23 12:36:35;;;;;;;2.55;1.90;;;;;;;29.59;30.33;99507.28;5084516;28;20071;-75
2022/05/23 12:39:32;;;;;;;5.03;1.92;;;;;;;29.60;30.17;99504.22;5089154;28;20165;-75
2022/05/23 12:42:13;;;;;;;4.32;2.00;;;;;;;29.65;30.34;99507.09;5070308;28;20086;-75
2022/05/23 12:45:11;;;;;;;3.67;2.15;;;;;;;29.68;30.09;99508.53;5085052;28;20560;-75
2022/05/23 12:47:55;;;;;;;3.60;2.08;;;;;;;29.70;30.17;99509.13;5081688;28;20056;-75